Seabourn Quest — C6YZ5 — position and weather

sailwx.info

Track history (hours):
 
Tides and Currents Weather Stations Pressure Air Temp Water Temp Dewpoint Dewpoint Depression Visibility Wind Speed Wind Dir Waves Ship Positions

Seabourn Quest

Last reported at 2018-Nov-10 18:04 UTC. Time now 2018-Nov-13 06:38 UTC.
Position N 09°11' W 079°52'.

Length 197 m; draft 6.7 m.

Type: Ship. MMSI: 311038900.

Date/timePositionNaut miles runAvg speedWind from/ knotsBaromVisibWave heightAir tempDewpointWater temp
2018-Nov-10 18:04N 09°11' W 079°52'112.2
2018-Nov-10 18:00N 09°11' W 079°53'6 8.4
2018-Nov-10 17:20N 09°16' W 079°55'0 0.4
2018-Nov-10 17:02N 09°16' W 079°55'0 0.5
2018-Nov-10 16:19N 09°17' W 079°55'0 0.8
2018-Nov-10 15:56N 09°17' W 079°55'1 1.3
2018-Nov-10 15:29N 09°17' W 079°55'1 2.0
2018-Nov-10 15:02N 09°18' W 079°55'2 4.7
2018-Nov-10 14:32N 09°21' W 079°55'3 5.6
2018-Nov-10 14:02N 09°23' W 079°55'3 6.6
2018-Nov-10 13:32N 09°27' W 079°55'3 5.4
2018-Nov-10 13:02N 09°28' W 079°58'3 5.5
2018-Nov-10 12:32N 09°29' W 080°00'4 7.0
2018-Nov-10 12:02N 09°29' W 080°04'  
2018-Nov-05 01:26N 25°34' W 079°58'514.3
2018-Nov-05 01:03N 25°39' W 079°59'115.0
2018-Nov-05 00:58N 25°40' W 080°00'714.5
2018-Nov-05 00:30N 25°46' W 080°05'4 8.8
2018-Nov-05 00:03N 25°46' W 080°09'0 6.9
2018-Nov-05 00:00N 25°46' W 080°09'1 1.8
2018-Nov-04 23:29N 25°47' W 080°10'0 0.0
2018-Nov-04 23:02N 25°47' W 080°10'0 0.0
2018-Nov-04 22:59N 25°47' W 080°10'0 0.0
2018-Nov-04 22:30N 25°47' W 080°10'0 0.0
2018-Nov-04 22:03N 25°47' W 080°10'0 0.0
2018-Nov-04 21:57N 25°47' W 080°10'0 0.0
2018-Nov-04 21:30N 25°47' W 080°10'0 0.0
2018-Nov-04 21:03N 25°47' W 080°10'0 0.0
2018-Nov-04 20:54N 25°47' W 080°10'0 0.0
2018-Nov-04 20:30N 25°47' W 080°10'0 0.0
2018-Nov-04 20:00N 25°47' W 080°10'0 0.0
2018-Nov-04 19:30N 25°47' W 080°10'0 0.0
2018-Nov-04 19:00N 25°47' W 080°10'0 0.0
2018-Nov-04 18:30N 25°47' W 080°10'0 0.0
2018-Nov-04 18:03N 25°47' W 080°10'0 0.0
2018-Nov-04 18:00N 25°47' W 080°10'0 0.0
2018-Nov-04 17:30N 25°47' W 080°10'0 0.0
2018-Nov-04 17:00N 25°47' W 080°10'0 0.0
2018-Nov-04 16:30N 25°47' W 080°10'0 0.0
2018-Nov-04 16:03N 25°47' W 080°10'0 0.0
2018-Nov-04 16:00N 25°47' W 080°10'0 0.0
2018-Nov-04 15:30N 25°47' W 080°10'0 0.0
2018-Nov-04 15:03N 25°47' W 080°10'0 0.0
2018-Nov-04 15:00N 25°47' W 080°10'0 0.0
2018-Nov-04 14:30N 25°47' W 080°10'0 0.0
2018-Nov-04 14:03N 25°47' W 080°10'0 0.0
2018-Nov-04 14:00N 25°47' W 080°10'0 0.0
2018-Nov-04 13:29N 25°47' W 080°10'0 0.0
2018-Nov-04 13:02N 25°47' W 080°10'0 0.0
2018-Nov-04 12:59N 25°47' W 080°10'0 0.0
2018-Nov-04 12:29N 25°47' W 080°10'0 0.0
2018-Nov-04 12:03N 25°47' W 080°10'0 0.2
2018-Nov-04 12:00N 25°47' W 080°10'0 0.2
2018-Nov-04 11:30N 25°47' W 080°10'3 7.6
2018-Nov-04 11:04N 25°45' W 080°07'112.7
2018-Nov-04 11:01N 25°46' W 080°06'5 9.9
2018-Nov-04 10:30N 25°48' W 080°01'510.8
2018-Nov-04 10:03N 25°53' W 080°00'110.6
2018-Nov-04 10:00N 25°54' W 079°60'510.6
2018-Nov-04 09:30N 25°59' W 079°59'510.9
2018-Nov-04 09:03N 26°04' W 079°57'111.2
2018-Nov-04 09:00N 26°04' W 079°57'510.8
2018-Nov-04 08:30N 26°09' W 079°57'510.5
2018-Nov-04 08:03N 26°14' W 079°56'110.5
2018-Nov-04 08:00N 26°15' W 079°56'611.0
2018-Nov-04 07:30N 26°20' W 079°55'611.4
2018-Nov-04 06:58N 26°26' W 079°55'2311.4
2018-Nov-04 04:56N 26°50' W 079°53'511.8
2018-Nov-04 04:31N 26°55' W 079°53'511.8
2018-Nov-04 04:03N 26°60' W 079°52'111.5
2018-Nov-04 04:00N 27°00' W 079°52'34614.2
2018-Nov-03 03:39N 32°46' W 079°54'110.2
2018-Nov-03 03:30N 32°47' W 079°55'0 0.9
2018-Nov-03 03:01N 32°47' W 079°55'0 0.0
2018-Nov-03 02:58N 32°47' W 079°55'0 0.0
2018-Nov-03 02:28N 32°47' W 079°55'0 0.0
2018-Nov-03 02:01N 32°47' W 079°55'0 0.0
2018-Nov-03 01:58N 32°47' W 079°55'0 0.0
2018-Nov-03 01:22N 32°47' W 079°55'0 0.0
2018-Nov-03 01:01N 32°47' W 079°55'0 0.0
2018-Nov-03 00:58N 32°47' W 079°55'0 0.0
2018-Nov-03 00:28N 32°47' W 079°55'0 0.0
2018-Nov-03 00:01N 32°47' W 079°55'0 0.0
2018-Nov-02 23:55N 32°47' W 079°55'0 0.0
2018-Nov-02 23:28N 32°47' W 079°55'0 0.0
2018-Nov-02 23:01N 32°47' W 079°55'0 0.0
2018-Nov-02 22:58N 32°47' W 079°55'0 0.0
2018-Nov-02 22:28N 32°47' W 079°55'0 0.0
2018-Nov-02 21:52N 32°47' W 079°55'0 0.0
2018-Nov-02 21:22N 32°47' W 079°55'0 0.0
2018-Nov-02 20:58N 32°47' W 079°55'0 0.0
2018-Nov-02 20:22N 32°47' W 079°55'0 0.0
2018-Nov-02 20:01N 32°47' W 079°55'0 0.0
2018-Nov-02 19:58N 32°47' W 079°55'0 0.0
2018-Nov-02 19:28N 32°47' W 079°55'0 0.0
2018-Nov-02 19:01N 32°47' W 079°55'0 0.0
2018-Nov-02 18:58N 32°47' W 079°55'0 0.0
2018-Nov-02 18:25N 32°47' W 079°55'0 0.0
2018-Nov-02 18:01N 32°47' W 079°55'0 0.0
2018-Nov-02 17:58N 32°47' W 079°55'0 0.0
2018-Nov-02 17:28N 32°47' W 079°55'0 0.0
2018-Nov-02 17:01N 32°47' W 079°55'0 0.0
2018-Nov-02 16:58N 32°47' W 079°55'0 0.0
2018-Nov-02 16:28N 32°47' W 079°55'0 0.0
2018-Nov-02 16:01N 32°47' W 079°55'0 0.0
2018-Nov-02 15:55N 32°47' W 079°55'0 0.0
2018-Nov-02 15:28N 32°47' W 079°55'0 0.0
2018-Nov-02 15:01N 32°47' W 079°55'0 0.0
2018-Nov-02 14:55N 32°47' W 079°55'0 0.0
2018-Nov-02 13:58N 32°47' W 079°55'0 0.0
2018-Nov-02 13:28N 32°47' W 079°55'0 0.0
2018-Nov-02 12:58N 32°47' W 079°55'0 0.0
2018-Nov-02 12:28N 32°47' W 079°55'0 0.0
2018-Nov-02 12:01N 32°47' W 079°55'0 0.0
2018-Nov-02 11:55N 32°47' W 079°55'0 0.0
2018-Nov-02 11:28N 32°47' W 079°55'0 0.0
2018-Nov-02 11:03N 32°47' W 079°55'0 0.1
2018-Nov-02 11:00N 32°47' W 079°55'2 3.5
2018-Nov-02 10:30N 32°46' W 079°53'  
Track history (hours):
 
Tides and Currents Weather Stations Pressure Air Temp Water Temp Dewpoint Dewpoint Depression Visibility Wind Speed Wind Dir Waves Ship Positions

Seabourn Quest

Last reported at 2018-Nov-10 18:04 UTC. Time now 2018-Nov-13 06:38 UTC.
Position N 09°11' W 079°52'.

Length 197 m; draft 6.7 m.

Type: Ship. MMSI: 311038900.

Date/timePositionNaut miles runAvg speedWind from/ knotsBaromVisibWave heightAir tempDewpointWater temp
2018-Nov-10 18:04N 09°11' W 079°52'112.2
2018-Nov-10 18:00N 09°11' W 079°53'6 8.4
2018-Nov-10 17:20N 09°16' W 079°55'0 0.4
2018-Nov-10 17:02N 09°16' W 079°55'0 0.5
2018-Nov-10 16:19N 09°17' W 079°55'0 0.8
2018-Nov-10 15:56N 09°17' W 079°55'1 1.3
2018-Nov-10 15:29N 09°17' W 079°55'1 2.0
2018-Nov-10 15:02N 09°18' W 079°55'2 4.7
2018-Nov-10 14:32N 09°21' W 079°55'3 5.6
2018-Nov-10 14:02N 09°23' W 079°55'3 6.6
2018-Nov-10 13:32N 09°27' W 079°55'3 5.4
2018-Nov-10 13:02N 09°28' W 079°58'3 5.5
2018-Nov-10 12:32N 09°29' W 080°00'4 7.0
2018-Nov-10 12:02N 09°29' W 080°04'  
2018-Nov-05 01:26N 25°34' W 079°58'514.3
2018-Nov-05 01:03N 25°39' W 079°59'115.0
2018-Nov-05 00:58N 25°40' W 080°00'714.5
2018-Nov-05 00:30N 25°46' W 080°05'4 8.8
2018-Nov-05 00:03N 25°46' W 080°09'0 6.9
2018-Nov-05 00:00N 25°46' W 080°09'1 1.8
2018-Nov-04 23:29N 25°47' W 080°10'0 0.0
2018-Nov-04 23:02N 25°47' W 080°10'0 0.0
2018-Nov-04 22:59N 25°47' W 080°10'0 0.0
2018-Nov-04 22:30N 25°47' W 080°10'0 0.0
2018-Nov-04 22:03N 25°47' W 080°10'0 0.0
2018-Nov-04 21:57N 25°47' W 080°10'0 0.0
2018-Nov-04 21:30N 25°47' W 080°10'0 0.0
2018-Nov-04 21:03N 25°47' W 080°10'0 0.0
2018-Nov-04 20:54N 25°47' W 080°10'0 0.0
2018-Nov-04 20:30N 25°47' W 080°10'0 0.0
2018-Nov-04 20:00N 25°47' W 080°10'0 0.0
2018-Nov-04 19:30N 25°47' W 080°10'0 0.0
2018-Nov-04 19:00N 25°47' W 080°10'0 0.0
2018-Nov-04 18:30N 25°47' W 080°10'0 0.0
2018-Nov-04 18:03N 25°47' W 080°10'0 0.0
2018-Nov-04 18:00N 25°47' W 080°10'0 0.0
2018-Nov-04 17:30N 25°47' W 080°10'0 0.0
2018-Nov-04 17:00N 25°47' W 080°10'0 0.0
2018-Nov-04 16:30N 25°47' W 080°10'0 0.0
2018-Nov-04 16:03N 25°47' W 080°10'0 0.0
2018-Nov-04 16:00N 25°47' W 080°10'0 0.0
2018-Nov-04 15:30N 25°47' W 080°10'0 0.0
2018-Nov-04 15:03N 25°47' W 080°10'0 0.0
2018-Nov-04 15:00N 25°47' W 080°10'0 0.0
2018-Nov-04 14:30N 25°47' W 080°10'0 0.0
2018-Nov-04 14:03N 25°47' W 080°10'0 0.0
2018-Nov-04 14:00N 25°47' W 080°10'0 0.0
2018-Nov-04 13:29N 25°47' W 080°10'0 0.0
2018-Nov-04 13:02N 25°47' W 080°10'0 0.0
2018-Nov-04 12:59N 25°47' W 080°10'0 0.0
2018-Nov-04 12:29N 25°47' W 080°10'0 0.0
2018-Nov-04 12:03N 25°47' W 080°10'0 0.2
2018-Nov-04 12:00N 25°47' W 080°10'0 0.2
2018-Nov-04 11:30N 25°47' W 080°10'3 7.6
2018-Nov-04 11:04N 25°45' W 080°07'112.7
2018-Nov-04 11:01N 25°46' W 080°06'5 9.9
2018-Nov-04 10:30N 25°48' W 080°01'510.8
2018-Nov-04 10:03N 25°53' W 080°00'110.6
2018-Nov-04 10:00N 25°54' W 079°60'510.6
2018-Nov-04 09:30N 25°59' W 079°59'510.9
2018-Nov-04 09:03N 26°04' W 079°57'111.2
2018-Nov-04 09:00N 26°04' W 079°57'510.8
2018-Nov-04 08:30N 26°09' W 079°57'510.5
2018-Nov-04 08:03N 26°14' W 079°56'110.5
2018-Nov-04 08:00N 26°15' W 079°56'611.0
2018-Nov-04 07:30N 26°20' W 079°55'611.4
2018-Nov-04 06:58N 26°26' W 079°55'2311.4
2018-Nov-04 04:56N 26°50' W 079°53'511.8
2018-Nov-04 04:31N 26°55' W 079°53'511.8
2018-Nov-04 04:03N 26°60' W 079°52'111.5
2018-Nov-04 04:00N 27°00' W 079°52'34614.2
2018-Nov-03 03:39N 32°46' W 079°54'110.2
2018-Nov-03 03:30N 32°47' W 079°55'0 0.9
2018-Nov-03 03:01N 32°47' W 079°55'0 0.0
2018-Nov-03 02:58N 32°47' W 079°55'0 0.0
2018-Nov-03 02:28N 32°47' W 079°55'0 0.0
2018-Nov-03 02:01N 32°47' W 079°55'0 0.0
2018-Nov-03 01:58N 32°47' W 079°55'0 0.0
2018-Nov-03 01:22N 32°47' W 079°55'0 0.0
2018-Nov-03 01:01N 32°47' W 079°55'0 0.0
2018-Nov-03 00:58N 32°47' W 079°55'0 0.0
2018-Nov-03 00:28N 32°47' W 079°55'0 0.0
2018-Nov-03 00:01N 32°47' W 079°55'0 0.0
2018-Nov-02 23:55N 32°47' W 079°55'0 0.0
2018-Nov-02 23:28N 32°47' W 079°55'0 0.0
2018-Nov-02 23:01N 32°47' W 079°55'0 0.0
2018-Nov-02 22:58N 32°47' W 079°55'0 0.0
2018-Nov-02 22:28N 32°47' W 079°55'0 0.0
2018-Nov-02 21:52N 32°47' W 079°55'0 0.0
2018-Nov-02 21:22N 32°47' W 079°55'0 0.0
2018-Nov-02 20:58N 32°47' W 079°55'0 0.0
2018-Nov-02 20:22N 32°47' W 079°55'0 0.0
2018-Nov-02 20:01N 32°47' W 079°55'0 0.0
2018-Nov-02 19:58N 32°47' W 079°55'0 0.0
2018-Nov-02 19:28N 32°47' W 079°55'0 0.0
2018-Nov-02 19:01N 32°47' W 079°55'0 0.0
2018-Nov-02 18:58N 32°47' W 079°55'0 0.0
2018-Nov-02 18:25N 32°47' W 079°55'0 0.0
2018-Nov-02 18:01N 32°47' W 079°55'0 0.0
2018-Nov-02 17:58N 32°47' W 079°55'0 0.0
2018-Nov-02 17:28N 32°47' W 079°55'0 0.0
2018-Nov-02 17:01N 32°47' W 079°55'0 0.0
2018-Nov-02 16:58N 32°47' W 079°55'0 0.0
2018-Nov-02 16:28N 32°47' W 079°55'0 0.0
2018-Nov-02 16:01N 32°47' W 079°55'0 0.0
2018-Nov-02 15:55N 32°47' W 079°55'0 0.0
2018-Nov-02 15:28N 32°47' W 079°55'0 0.0
2018-Nov-02 15:01N 32°47' W 079°55'0 0.0
2018-Nov-02 14:55N 32°47' W 079°55'0 0.0
2018-Nov-02 13:58N 32°47' W 079°55'0 0.0
2018-Nov-02 13:28N 32°47' W 079°55'0 0.0
2018-Nov-02 12:58N 32°47' W 079°55'0 0.0
2018-Nov-02 12:28N 32°47' W 079°55'0 0.0
2018-Nov-02 12:01N 32°47' W 079°55'0 0.0
2018-Nov-02 11:55N 32°47' W 079°55'0 0.0
2018-Nov-02 11:28N 32°47' W 079°55'0 0.0
2018-Nov-02 11:03N 32°47' W 079°55'0 0.1
2018-Nov-02 11:00N 32°47' W 079°55'2 3.5
2018-Nov-02 10:30N 32°46' W 079°53'  

Dump ship's entire track history